createdAt,value
2023-05-12T00:00:00.754Z,9.43
2023-05-12T00:02:02.356Z,8.68
2023-05-12T00:04:04.091Z,9.35
2023-05-12T00:06:06.660Z,8.43
2023-05-12T00:08:08.279Z,8.75
2023-05-12T00:10:10.113Z,8.65
2023-05-12T00:12:11.908Z,7.60
2023-05-12T00:14:13.652Z,8.52
2023-05-12T00:16:17.559Z,7.90
2023-05-12T00:18:19.223Z,7.63
2023-05-12T00:20:21.538Z,8.00
2023-05-12T00:22:23.487Z,7.60
2023-05-12T00:24:25.760Z,7.57
2023-05-12T00:26:27.707Z,7.53
2023-05-12T00:28:29.389Z,7.70
2023-05-12T00:30:31.108Z,7.30
2023-05-12T00:32:32.812Z,6.97
2023-05-12T00:34:34.421Z,7.32
2023-05-12T00:36:36.184Z,7.50
2023-05-12T00:38:38.219Z,7.45
2023-05-12T00:40:42.073Z,8.10
2023-05-12T00:44:45.863Z,7.97
2023-05-12T00:46:47.602Z,8.75
2023-05-12T00:48:49.197Z,8.68
2023-05-12T00:50:50.914Z,8.68
2023-05-12T00:52:52.774Z,8.20
2023-05-12T00:54:55.035Z,8.43
2023-05-12T00:56:57.596Z,9.68
2023-05-12T00:58:59.174Z,9.82
2023-05-12T01:01:00.738Z,9.23
2023-05-12T01:03:02.801Z,10.05
2023-05-12T01:05:04.937Z,9.40
2023-05-12T01:07:19.595Z,9.52
2023-05-12T01:09:21.505Z,9.55
2023-05-12T01:11:23.578Z,9.52
2023-05-12T01:13:26.528Z,9.35
2023-05-12T01:15:29.828Z,10.60
2023-05-12T01:17:35.644Z,10.70
2023-05-12T01:19:51.910Z,11.43
2023-05-12T01:21:53.558Z,10.63
2023-05-12T01:23:58.915Z,10.93
2023-05-12T01:26:10.297Z,10.65
2023-05-12T01:28:12.754Z,10.77
2023-05-12T01:30:17.364Z,10.93
2023-05-12T01:32:19.323Z,11.18
2023-05-12T01:34:20.986Z,11.48
2023-05-12T01:36:22.553Z,10.68
2023-05-12T01:38:24.222Z,10.73
2023-05-12T01:40:25.868Z,10.55
2023-05-12T01:42:27.984Z,10.27
2023-05-12T01:44:29.601Z,9.93
2023-05-12T01:46:31.417Z,9.73
2023-05-12T01:48:33.141Z,11.55
2023-05-12T01:50:34.714Z,10.20
2023-05-12T01:52:36.315Z,10.23
2023-05-12T01:54:38.323Z,10.55
2023-05-12T01:56:40.022Z,10.20
2023-05-12T01:58:41.647Z,10.38
2023-05-12T02:00:43.277Z,10.70
2023-05-12T02:02:45.021Z,10.30
2023-05-12T02:04:46.692Z,11.32
2023-05-12T02:06:48.266Z,10.15
2023-05-12T02:08:49.878Z,10.13
2023-05-12T02:10:51.470Z,10.73
2023-05-12T02:12:53.118Z,10.35
2023-05-12T02:14:54.676Z,10.85
2023-05-12T02:16:56.425Z,10.60
2023-05-12T02:18:58.026Z,10.48
2023-05-12T02:20:59.696Z,9.57
2023-05-12T02:23:02.209Z,10.38
2023-05-12T02:25:04.057Z,10.27
2023-05-12T02:27:06.063Z,9.25
2023-05-12T02:29:07.644Z,9.45
2023-05-12T02:31:09.469Z,9.80
2023-05-12T02:33:11.043Z,10.23
2023-05-12T02:35:12.605Z,9.43
2023-05-12T02:37:14.180Z,9.00
2023-05-12T02:39:15.891Z,9.38
2023-05-12T02:41:17.447Z,9.35
2023-05-12T02:43:19.067Z,9.23
2023-05-12T02:45:20.681Z,10.10
2023-05-12T02:47:22.319Z,9.52
2023-05-12T02:49:23.943Z,9.68
2023-05-12T02:51:25.534Z,8.95
2023-05-12T02:53:27.621Z,9.02
2023-05-12T02:55:30.301Z,8.00
2023-05-12T02:57:34.172Z,8.45
2023-05-12T02:59:36.058Z,7.00
2023-05-12T03:01:37.915Z,7.03
2023-05-12T03:03:39.749Z,7.22
2023-05-12T03:05:41.390Z,6.65
2023-05-12T03:07:43.040Z,6.50
2023-05-12T03:09:44.636Z,6.85
2023-05-12T03:11:46.368Z,7.55
2023-05-12T03:13:48.124Z,7.22
2023-05-12T03:15:49.790Z,7.28
2023-05-12T03:17:51.556Z,7.38
2023-05-12T03:19:53.194Z,7.97
2023-05-12T03:21:55.151Z,8.10
2023-05-12T03:23:57.416Z,8.15
2023-05-12T03:25:59.017Z,7.93
2023-05-12T03:28:03.628Z,8.77
2023-05-12T03:30:06.059Z,8.10
2023-05-12T03:32:08.699Z,8.15
2023-05-12T03:34:10.348Z,8.38
2023-05-12T03:36:11.935Z,8.50
2023-05-12T03:38:13.466Z,8.13
2023-05-12T03:40:18.749Z,8.55
2023-05-12T03:42:20.692Z,8.20
2023-05-12T03:44:22.367Z,9.50
2023-05-12T03:46:24.271Z,8.25
2023-05-12T03:48:26.328Z,9.23
2023-05-12T03:50:27.924Z,8.75
2023-05-12T03:52:29.545Z,9.10
2023-05-12T03:54:31.128Z,8.52
2023-05-12T03:56:32.982Z,8.80
2023-05-12T03:58:34.643Z,8.43
2023-05-12T04:00:36.180Z,9.00
2023-05-12T04:02:37.827Z,8.27
2023-05-12T04:04:39.578Z,9.00
2023-05-12T04:06:41.161Z,8.43
2023-05-12T04:08:42.787Z,8.55
2023-05-12T04:10:44.366Z,8.82
2023-05-12T04:12:46.077Z,9.57
2023-05-12T04:14:48.331Z,8.82
2023-05-12T04:16:50.077Z,8.80
2023-05-12T04:18:51.963Z,9.02
2023-05-12T04:20:54.259Z,9.80
2023-05-12T04:22:56.821Z,8.80
2023-05-12T04:24:58.450Z,9.02
2023-05-12T04:27:00.583Z,8.55
2023-05-12T04:29:02.169Z,9.13
2023-05-12T04:31:04.634Z,8.32
2023-05-12T04:33:06.505Z,8.75
2023-05-12T04:35:08.694Z,8.88
2023-05-12T04:37:10.274Z,8.38
2023-05-12T04:39:12.987Z,8.25
2023-05-12T04:41:14.570Z,9.18
2023-05-12T04:45:21.074Z,9.27
2023-05-12T04:47:22.966Z,7.78
2023-05-12T04:49:24.637Z,8.27
2023-05-12T04:51:26.339Z,8.23
2023-05-12T04:53:28.123Z,8.10
2023-05-12T04:55:31.143Z,7.93
2023-05-12T04:57:32.696Z,8.35
2023-05-12T04:59:34.610Z,8.38
2023-05-12T05:01:36.238Z,8.60
2023-05-12T05:03:38.028Z,7.80
2023-05-12T05:05:39.671Z,8.07
2023-05-12T05:07:41.257Z,7.80
2023-05-12T05:09:42.810Z,7.85
2023-05-12T05:11:44.426Z,8.02
2023-05-12T05:13:46.028Z,7.80
2023-05-12T05:15:54.589Z,8.57
2023-05-12T05:17:56.300Z,8.23
2023-05-12T05:19:59.677Z,8.55
2023-05-12T05:22:01.599Z,8.57
2023-05-12T05:24:03.277Z,7.63
2023-05-12T05:26:05.004Z,7.97
2023-05-12T05:28:06.848Z,7.90
2023-05-12T05:30:09.292Z,7.57
2023-05-12T05:32:10.867Z,7.35
2023-05-12T05:34:12.583Z,8.73
2023-05-12T05:36:14.308Z,8.02
2023-05-12T05:38:15.992Z,8.60
2023-05-12T05:40:17.700Z,8.35
2023-05-12T05:42:19.300Z,8.40
2023-05-12T05:44:20.859Z,8.95
2023-05-12T05:46:22.500Z,8.70
2023-05-12T05:48:24.997Z,9.57
2023-05-12T05:50:26.609Z,9.00
2023-05-12T05:52:28.225Z,9.63
2023-05-12T05:54:29.895Z,9.30
2023-05-12T05:56:33.304Z,9.05
2023-05-12T05:58:34.885Z,9.02
2023-05-12T06:00:36.523Z,8.80
2023-05-12T06:02:38.286Z,9.30
2023-05-12T06:04:39.929Z,9.60
2023-05-12T06:06:41.570Z,8.70
2023-05-12T06:08:43.192Z,9.57
2023-05-12T06:10:44.791Z,9.82
2023-05-12T06:12:46.474Z,9.25
2023-05-12T06:14:48.081Z,8.90
2023-05-12T06:16:49.936Z,9.70
2023-05-12T06:18:51.626Z,9.32
2023-05-12T06:20:53.444Z,9.38
2023-05-12T06:22:55.008Z,9.23
2023-05-12T06:24:56.711Z,9.55
2023-05-12T06:26:58.308Z,9.82
2023-05-12T06:28:59.877Z,9.65
2023-05-12T06:31:01.443Z,9.45
2023-05-12T06:33:03.125Z,9.43
2023-05-12T06:35:05.129Z,9.32
2023-05-12T06:37:06.765Z,10.35
2023-05-12T06:39:08.648Z,8.95
2023-05-12T06:41:10.338Z,9.05
2023-05-12T06:43:13.098Z,8.60
2023-05-12T06:45:14.867Z,8.75
2023-05-12T06:47:16.455Z,9.10
2023-05-12T06:49:18.121Z,8.85
2023-05-12T06:51:19.722Z,9.15
2023-05-12T06:53:23.368Z,9.00
2023-05-12T06:55:26.580Z,9.45
2023-05-12T06:57:28.246Z,8.07
2023-05-12T06:59:30.860Z,8.93
2023-05-12T07:01:32.766Z,8.73
2023-05-12T07:03:34.792Z,8.80
2023-05-12T07:05:36.596Z,8.52
2023-05-12T07:07:38.258Z,9.50
2023-05-12T07:09:41.620Z,9.07
2023-05-12T07:11:43.281Z,8.85
2023-05-12T07:13:44.848Z,8.75
2023-05-12T07:15:46.429Z,9.27
2023-05-12T07:17:48.132Z,9.55
2023-05-12T07:19:49.712Z,9.45
2023-05-12T07:21:51.381Z,9.75
2023-05-12T07:23:53.086Z,10.02
2023-05-12T07:25:54.818Z,9.73
2023-05-12T07:27:56.432Z,11.10
2023-05-12T07:29:57.991Z,10.60
2023-05-12T07:31:59.807Z,10.10
2023-05-12T07:34:01.375Z,9.85
2023-05-12T07:36:04.755Z,10.23
2023-05-12T07:38:06.509Z,9.70
2023-05-12T07:40:08.573Z,9.60
2023-05-12T07:42:11.145Z,11.57
2023-05-12T07:44:12.783Z,10.70
2023-05-12T07:46:14.408Z,10.30
2023-05-12T07:48:16.085Z,10.65
2023-05-12T07:50:19.033Z,10.02
2023-05-12T07:52:20.811Z,9.47
2023-05-12T07:54:22.437Z,10.38
2023-05-12T07:56:24.537Z,9.90
2023-05-12T07:58:26.229Z,8.43
2023-05-12T08:00:28.197Z,9.50
2023-05-12T08:02:29.903Z,9.73
2023-05-12T08:04:31.810Z,9.02
2023-05-12T08:06:33.770Z,9.45
2023-05-12T08:08:36.596Z,9.10
2023-05-12T08:10:38.161Z,8.50
2023-05-12T08:12:40.821Z,8.80
2023-05-12T08:14:42.437Z,9.30
2023-05-12T08:16:46.525Z,8.98
2023-05-12T08:18:48.335Z,8.93
2023-05-12T08:20:50.604Z,9.30
2023-05-12T08:22:52.739Z,10.63
2023-05-12T08:24:54.315Z,9.35
2023-05-12T08:26:55.936Z,8.40
2023-05-12T08:28:57.571Z,9.68
2023-05-12T08:30:59.268Z,7.93
2023-05-12T08:33:01.764Z,7.75
2023-05-12T08:35:03.905Z,8.18
2023-05-12T08:37:06.475Z,8.10
2023-05-12T08:39:10.300Z,8.23
